sensor_id;sensor_type;location;lat;lon;timestamp;P1;durP1;ratioP1;P2;durP2;ratioP2
4971;SDS011;2501;51.214;6.768;2023-03-21T00:01:02;21.98;;;9.18;;
4971;SDS011;2501;51.214;6.768;2023-03-21T00:03:32;19.13;;;7.38;;
4971;SDS011;2501;51.214;6.768;2023-03-21T00:06:07;21.33;;;8.35;;
4971;SDS011;2501;51.214;6.768;2023-03-21T00:08:37;23.23;;;6.43;;
4971;SDS011;2501;51.214;6.768;2023-03-21T00:11:07;16.23;;;7.50;;
4971;SDS011;2501;51.214;6.768;2023-03-21T00:13:37;16.80;;;6.27;;
4971;SDS011;2501;51.214;6.768;2023-03-21T00:16:07;23.35;;;9.90;;
4971;SDS011;2501;51.214;6.768;2023-03-21T00:18:39;22.73;;;8.82;;
4971;SDS011;2501;51.214;6.768;2023-03-21T00:21:14;21.95;;;8.48;;
4971;SDS011;2501;51.214;6.768;2023-03-21T00:23:44;25.17;;;7.95;;
4971;SDS011;2501;51.214;6.768;2023-03-21T00:26:13;23.13;;;7.80;;
4971;SDS011;2501;51.214;6.768;2023-03-21T00:28:42;29.08;;;10.07;;
4971;SDS011;2501;51.214;6.768;2023-03-21T00:31:11;17.77;;;8.27;;
4971;SDS011;2501;51.214;6.768;2023-03-21T00:33:39;23.67;;;8.75;;
4971;SDS011;2501;51.214;6.768;2023-03-21T00:36:08;20.00;;;7.97;;
4971;SDS011;2501;51.214;6.768;2023-03-21T00:38:42;17.75;;;8.00;;
4971;SDS011;2501;51.214;6.768;2023-03-21T00:41:13;18.40;;;7.93;;
4971;SDS011;2501;51.214;6.768;2023-03-21T00:43:41;16.63;;;7.73;;
4971;SDS011;2501;51.214;6.768;2023-03-21T00:46:10;27.63;;;7.00;;
4971;SDS011;2501;51.214;6.768;2023-03-21T00:48:39;22.52;;;8.55;;
4971;SDS011;2501;51.214;6.768;2023-03-21T00:51:10;20.70;;;7.07;;
4971;SDS011;2501;51.214;6.768;2023-03-21T00:53:43;19.53;;;8.10;;
4971;SDS011;2501;51.214;6.768;2023-03-21T00:56:11;18.85;;;7.55;;
4971;SDS011;2501;51.214;6.768;2023-03-21T00:58:43;21.33;;;9.00;;
4971;SDS011;2501;51.214;6.768;2023-03-21T01:01:11;16.38;;;6.97;;
4971;SDS011;2501;51.214;6.768;2023-03-21T01:03:40;23.98;;;9.70;;
4971;SDS011;2501;51.214;6.768;2023-03-21T01:06:15;18.38;;;8.30;;
4971;SDS011;2501;51.214;6.768;2023-03-21T01:08:48;16.67;;;7.32;;
4971;SDS011;2501;51.214;6.768;2023-03-21T01:11:18;20.88;;;8.40;;
4971;SDS011;2501;51.214;6.768;2023-03-21T01:13:48;21.08;;;8.30;;
4971;SDS011;2501;51.214;6.768;2023-03-21T01:16:16;17.73;;;8.13;;
4971;SDS011;2501;51.214;6.768;2023-03-21T01:18:45;21.98;;;9.32;;
4971;SDS011;2501;51.214;6.768;2023-03-21T01:21:13;24.17;;;9.65;;
4971;SDS011;2501;51.214;6.768;2023-03-21T01:23:42;29.92;;;8.90;;
4971;SDS011;2501;51.214;6.768;2023-03-21T01:26:13;23.33;;;9.40;;
4971;SDS011;2501;51.214;6.768;2023-03-21T01:28:42;17.83;;;7.82;;
4971;SDS011;2501;51.214;6.768;2023-03-21T01:31:12;21.40;;;7.40;;
4971;SDS011;2501;51.214;6.768;2023-03-21T01:33:42;26.10;;;8.27;;
4971;SDS011;2501;51.214;6.768;2023-03-21T01:36:12;19.80;;;7.72;;
4971;SDS011;2501;51.214;6.768;2023-03-21T01:38:43;15.07;;;7.20;;
4971;SDS011;2501;51.214;6.768;2023-03-21T01:41:17;17.83;;;7.28;;
4971;SDS011;2501;51.214;6.768;2023-03-21T01:43:50;20.27;;;7.70;;
4971;SDS011;2501;51.214;6.768;2023-03-21T01:49:06;19.50;;;8.52;;
4971;SDS011;2501;51.214;6.768;2023-03-21T01:51:39;19.08;;;7.70;;
4971;SDS011;2501;51.214;6.768;2023-03-21T01:54:11;17.23;;;8.00;;
4971;SDS011;2501;51.214;6.768;2023-03-21T01:56:46;16.65;;;7.75;;
4971;SDS011;2501;51.214;6.768;2023-03-21T01:59:17;17.95;;;7.88;;
4971;SDS011;2501;51.214;6.768;2023-03-21T02:01:49;19.87;;;7.97;;
4971;SDS011;2501;51.214;6.768;2023-03-21T02:04:18;19.73;;;8.45;;
4971;SDS011;2501;51.214;6.768;2023-03-21T02:06:53;22.67;;;8.57;;
4971;SDS011;2501;51.214;6.768;2023-03-21T02:09:27;15.73;;;7.10;;
4971;SDS011;2501;51.214;6.768;2023-03-21T02:12:02;22.13;;;8.05;;
4971;SDS011;2501;51.214;6.768;2023-03-21T02:14:33;17.10;;;8.40;;
4971;SDS011;2501;51.214;6.768;2023-03-21T02:17:05;16.45;;;8.75;;
4971;SDS011;2501;51.214;6.768;2023-03-21T02:22:55;21.92;;;7.80;;
4971;SDS011;2501;51.214;6.768;2023-03-21T02:25:44;18.75;;;8.75;;
4971;SDS011;2501;51.214;6.768;2023-03-21T02:28:28;24.23;;;8.60;;
4971;SDS011;2501;51.214;6.768;2023-03-21T02:31:05;19.70;;;8.10;;
4971;SDS011;2501;51.214;6.768;2023-03-21T02:34:00;20.27;;;8.30;;
4971;SDS011;2501;51.214;6.768;2023-03-21T02:36:51;20.98;;;8.40;;
4971;SDS011;2501;51.214;6.768;2023-03-21T02:39:28;16.83;;;7.53;;
4971;SDS011;2501;51.214;6.768;2023-03-21T02:42:06;19.08;;;7.82;;
4971;SDS011;2501;51.214;6.768;2023-03-21T02:44:41;19.15;;;7.28;;
4971;SDS011;2501;51.214;6.768;2023-03-21T02:47:15;22.83;;;8.40;;
4971;SDS011;2501;51.214;6.768;2023-03-21T02:49:49;19.38;;;7.55;;
4971;SDS011;2501;51.214;6.768;2023-03-21T02:52:25;24.35;;;8.77;;
4971;SDS011;2501;51.214;6.768;2023-03-21T02:54:57;20.50;;;8.93;;
4971;SDS011;2501;51.214;6.768;2023-03-21T02:57:29;15.90;;;7.65;;
4971;SDS011;2501;51.214;6.768;2023-03-21T02:59:58;18.90;;;7.90;;
4971;SDS011;2501;51.214;6.768;2023-03-21T03:02:36;22.10;;;8.80;;
4971;SDS011;2501;51.214;6.768;2023-03-21T03:05:13;23.58;;;8.45;;
4971;SDS011;2501;51.214;6.768;2023-03-21T03:07:48;18.40;;;8.00;;
4971;SDS011;2501;51.214;6.768;2023-03-21T03:10:29;16.98;;;8.80;;
4971;SDS011;2501;51.214;6.768;2023-03-21T03:13:10;25.02;;;9.32;;
4971;SDS011;2501;51.214;6.768;2023-03-21T03:15:51;16.98;;;7.95;;
4971;SDS011;2501;51.214;6.768;2023-03-21T03:18:32;17.95;;;7.70;;
4971;SDS011;2501;51.214;6.768;2023-03-21T03:21:08;22.52;;;8.32;;
4971;SDS011;2501;51.214;6.768;2023-03-21T03:23:48;19.08;;;7.63;;
4971;SDS011;2501;51.214;6.768;2023-03-21T03:26:20;22.67;;;7.90;;
4971;SDS011;2501;51.214;6.768;2023-03-21T03:28:54;21.58;;;7.50;;
4971;SDS011;2501;51.214;6.768;2023-03-21T03:31:27;19.08;;;7.97;;
4971;SDS011;2501;51.214;6.768;2023-03-21T03:34:03;18.33;;;8.02;;
4971;SDS011;2501;51.214;6.768;2023-03-21T03:36:35;20.27;;;7.88;;
4971;SDS011;2501;51.214;6.768;2023-03-21T03:39:10;19.83;;;7.88;;
4971;SDS011;2501;51.214;6.768;2023-03-21T03:41:40;13.40;;;7.15;;
4971;SDS011;2501;51.214;6.768;2023-03-21T03:44:12;24.50;;;8.20;;
4971;SDS011;2501;51.214;6.768;2023-03-21T03:46:42;23.55;;;8.00;;
4971;SDS011;2501;51.214;6.768;2023-03-21T03:49:15;17.20;;;6.97;;
4971;SDS011;2501;51.214;6.768;2023-03-21T03:51:49;16.50;;;7.05;;
4971;SDS011;2501;51.214;6.768;2023-03-21T03:54:24;21.83;;;7.90;;
4971;SDS011;2501;51.214;6.768;2023-03-21T03:56:56;17.75;;;7.28;;
4971;SDS011;2501;51.214;6.768;2023-03-21T03:59:26;21.25;;;7.70;;
4971;SDS011;2501;51.214;6.768;2023-03-21T04:01:54;17.00;;;7.15;;
4971;SDS011;2501;51.214;6.768;2023-03-21T04:04:23;14.87;;;6.80;;
4971;SDS011;2501;51.214;6.768;2023-03-21T04:06:52;20.85;;;7.75;;
4971;SDS011;2501;51.214;6.768;2023-03-21T04:09:21;20.27;;;8.25;;
4971;SDS011;2501;51.214;6.768;2023-03-21T04:11:52;18.42;;;7.38;;
4971;SDS011;2501;51.214;6.768;2023-03-21T04:14:21;13.30;;;6.70;;
4971;SDS011;2501;51.214;6.768;2023-03-21T04:16:50;17.15;;;7.03;;
4971;SDS011;2501;51.214;6.768;2023-03-21T04:19:18;17.58;;;7.40;;
4971;SDS011;2501;51.214;6.768;2023-03-21T04:21:47;24.42;;;8.00;;
4971;SDS011;2501;51.214;6.768;2023-03-21T04:24:16;16.92;;;7.13;;
4971;SDS011;2501;51.214;6.768;2023-03-21T04:26:47;18.27;;;6.90;;
4971;SDS011;2501;51.214;6.768;2023-03-21T04:29:18;18.13;;;7.63;;
4971;SDS011;2501;51.214;6.768;2023-03-21T04:31:47;19.40;;;6.90;;
4971;SDS011;2501;51.214;6.768;2023-03-21T04:34:15;19.13;;;7.57;;
4971;SDS011;2501;51.214;6.768;2023-03-21T04:36:48;14.00;;;7.38;;
4971;SDS011;2501;51.214;6.768;2023-03-21T04:39:18;18.77;;;7.70;;
4971;SDS011;2501;51.214;6.768;2023-03-21T04:41:51;18.00;;;7.45;;
4971;SDS011;2501;51.214;6.768;2023-03-21T04:44:19;18.58;;;7.90;;
4971;SDS011;2501;51.214;6.768;2023-03-21T04:46:48;18.90;;;8.27;;
4971;SDS011;2501;51.214;6.768;2023-03-21T04:49:17;18.10;;;7.37;;
4971;SDS011;2501;51.214;6.768;2023-03-21T04:51:45;18.27;;;8.68;;
4971;SDS011;2501;51.214;6.768;2023-03-21T04:54:14;24.10;;;8.48;;
4971;SDS011;2501;51.214;6.768;2023-03-21T04:56:43;18.00;;;7.93;;
4971;SDS011;2501;51.214;6.768;2023-03-21T04:59:14;20.23;;;8.20;;
4971;SDS011;2501;51.214;6.768;2023-03-21T05:01:43;23.63;;;6.95;;
4971;SDS011;2501;51.214;6.768;2023-03-21T05:04:12;17.20;;;7.53;;
4971;SDS011;2501;51.214;6.768;2023-03-21T05:06:41;20.13;;;8.18;;
4971;SDS011;2501;51.214;6.768;2023-03-21T05:09:10;18.57;;;7.43;;
4971;SDS011;2501;51.214;6.768;2023-03-21T05:11:40;17.73;;;8.60;;
4971;SDS011;2501;51.214;6.768;2023-03-21T05:14:10;18.50;;;8.55;;
4971;SDS011;2501;51.214;6.768;2023-03-21T05:16:44;20.13;;;7.70;;
4971;SDS011;2501;51.214;6.768;2023-03-21T05:19:17;18.25;;;8.20;;
4971;SDS011;2501;51.214;6.768;2023-03-21T05:21:46;17.83;;;8.20;;
4971;SDS011;2501;51.214;6.768;2023-03-21T05:24:16;14.32;;;7.65;;
4971;SDS011;2501;51.214;6.768;2023-03-21T05:26:46;15.20;;;7.93;;
4971;SDS011;2501;51.214;6.768;2023-03-21T05:29:20;17.92;;;8.02;;
4971;SDS011;2501;51.214;6.768;2023-03-21T05:31:51;18.58;;;7.50;;
4971;SDS011;2501;51.214;6.768;2023-03-21T05:34:19;17.95;;;8.68;;
4971;SDS011;2501;51.214;6.768;2023-03-21T05:36:48;20.77;;;8.70;;
4971;SDS011;2501;51.214;6.768;2023-03-21T05:39:16;20.70;;;9.20;;
4971;SDS011;2501;51.214;6.768;2023-03-21T05:41:45;17.58;;;8.82;;
4971;SDS011;2501;51.214;6.768;2023-03-21T05:44:13;23.70;;;8.47;;
4971;SDS011;2501;51.214;6.768;2023-03-21T05:46:42;18.35;;;7.90;;
4971;SDS011;2501;51.214;6.768;2023-03-21T05:49:13;21.63;;;8.95;;
4971;SDS011;2501;51.214;6.768;2023-03-21T05:51:41;28.33;;;9.80;;
4971;SDS011;2501;51.214;6.768;2023-03-21T05:54:10;26.20;;;9.40;;
4971;SDS011;2501;51.214;6.768;2023-03-21T05:56:40;37.97;;;17.88;;
4971;SDS011;2501;51.214;6.768;2023-03-21T05:59:09;19.87;;;10.43;;
4971;SDS011;2501;51.214;6.768;2023-03-21T06:01:37;24.73;;;9.80;;
4971;SDS011;2501;51.214;6.768;2023-03-21T06:04:06;24.70;;;10.20;;
4971;SDS011;2501;51.214;6.768;2023-03-21T06:06:37;23.65;;;10.43;;
4971;SDS011;2501;51.214;6.768;2023-03-21T06:09:05;24.13;;;11.93;;
4971;SDS011;2501;51.214;6.768;2023-03-21T06:11:34;24.08;;;10.68;;
4971;SDS011;2501;51.214;6.768;2023-03-21T06:14:06;26.90;;;10.57;;
4971;SDS011;2501;51.214;6.768;2023-03-21T06:16:34;24.02;;;9.98;;
4971;SDS011;2501;51.214;6.768;2023-03-21T06:19:02;20.52;;;9.85;;
4971;SDS011;2501;51.214;6.768;2023-03-21T06:21:31;26.90;;;9.90;;
4971;SDS011;2501;51.214;6.768;2023-03-21T06:24:02;24.90;;;9.88;;
4971;SDS011;2501;51.214;6.768;2023-03-21T06:26:31;20.17;;;10.35;;
4971;SDS011;2501;51.214;6.768;2023-03-21T06:28:59;19.88;;;8.55;;
4971;SDS011;2501;51.214;6.768;2023-03-21T06:31:28;20.98;;;8.40;;
4971;SDS011;2501;51.214;6.768;2023-03-21T06:33:56;18.42;;;8.75;;
4971;SDS011;2501;51.214;6.768;2023-03-21T06:36:25;24.85;;;9.43;;
4971;SDS011;2501;51.214;6.768;2023-03-21T06:38:53;19.50;;;8.73;;
4971;SDS011;2501;51.214;6.768;2023-03-21T06:41:24;19.95;;;8.60;;
4971;SDS011;2501;51.214;6.768;2023-03-21T06:43:52;25.15;;;9.85;;
4971;SDS011;2501;51.214;6.768;2023-03-21T06:46:21;16.30;;;8.70;;
4971;SDS011;2501;51.214;6.768;2023-03-21T06:48:49;22.75;;;9.50;;
4971;SDS011;2501;51.214;6.768;2023-03-21T06:51:18;24.50;;;9.45;;
4971;SDS011;2501;51.214;6.768;2023-03-21T06:53:46;20.50;;;9.75;;
4971;SDS011;2501;51.214;6.768;2023-03-21T06:56:15;17.98;;;9.13;;
4971;SDS011;2501;51.214;6.768;2023-03-21T06:58:46;19.60;;;9.60;;
4971;SDS011;2501;51.214;6.768;2023-03-21T07:01:15;20.47;;;10.00;;
4971;SDS011;2501;51.214;6.768;2023-03-21T07:03:43;22.05;;;10.60;;
4971;SDS011;2501;51.214;6.768;2023-03-21T07:06:12;25.27;;;9.52;;
4971;SDS011;2501;51.214;6.768;2023-03-21T07:08:41;20.80;;;9.50;;
4971;SDS011;2501;51.214;6.768;2023-03-21T07:11:12;20.37;;;8.90;;
4971;SDS011;2501;51.214;6.768;2023-03-21T07:13:40;19.85;;;9.10;;
4971;SDS011;2501;51.214;6.768;2023-03-21T07:16:12;16.27;;;7.67;;
4971;SDS011;2501;51.214;6.768;2023-03-21T07:18:41;24.20;;;8.53;;
4971;SDS011;2501;51.214;6.768;2023-03-21T07:21:09;13.07;;;8.02;;
4971;SDS011;2501;51.214;6.768;2023-03-21T07:23:38;26.13;;;9.35;;
4971;SDS011;2501;51.214;6.768;2023-03-21T07:26:07;20.00;;;8.75;;
4971;SDS011;2501;51.214;6.768;2023-03-21T07:28:35;22.02;;;7.80;;
4971;SDS011;2501;51.214;6.768;2023-03-21T07:31:05;19.53;;;7.63;;
4971;SDS011;2501;51.214;6.768;2023-03-21T07:33:38;21.35;;;8.05;;
4971;SDS011;2501;51.214;6.768;2023-03-21T07:36:09;19.60;;;7.68;;
4971;SDS011;2501;51.214;6.768;2023-03-21T07:38:44;16.37;;;8.10;;
4971;SDS011;2501;51.214;6.768;2023-03-21T07:41:13;22.70;;;8.55;;
4971;SDS011;2501;51.214;6.768;2023-03-21T07:43:41;16.93;;;9.13;;
4971;SDS011;2501;51.214;6.768;2023-03-21T07:46:10;22.40;;;8.80;;
4971;SDS011;2501;51.214;6.768;2023-03-21T07:48:41;19.45;;;8.40;;
4971;SDS011;2501;51.214;6.768;2023-03-21T07:51:09;25.23;;;9.68;;
4971;SDS011;2501;51.214;6.768;2023-03-21T07:53:38;20.23;;;8.90;;
4971;SDS011;2501;51.214;6.768;2023-03-21T07:56:08;17.60;;;8.82;;
4971;SDS011;2501;51.214;6.768;2023-03-21T07:58:36;19.00;;;8.52;;
4971;SDS011;2501;51.214;6.768;2023-03-21T08:01:05;22.67;;;9.23;;
4971;SDS011;2501;51.214;6.768;2023-03-21T08:03:33;22.40;;;9.13;;
4971;SDS011;2501;51.214;6.768;2023-03-21T08:06:05;20.38;;;10.25;;
4971;SDS011;2501;51.214;6.768;2023-03-21T08:08:34;19.02;;;9.10;;
4971;SDS011;2501;51.214;6.768;2023-03-21T08:11:03;21.93;;;9.50;;
4971;SDS011;2501;51.214;6.768;2023-03-21T08:13:32;25.40;;;11.07;;
4971;SDS011;2501;51.214;6.768;2023-03-21T08:16:00;21.33;;;9.68;;
4971;SDS011;2501;51.214;6.768;2023-03-21T08:18:29;24.13;;;9.63;;
4971;SDS011;2501;51.214;6.768;2023-03-21T08:20:58;20.25;;;10.00;;
4971;SDS011;2501;51.214;6.768;2023-03-21T08:23:29;19.88;;;9.60;;
4971;SDS011;2501;51.214;6.768;2023-03-21T08:25:58;27.05;;;9.52;;
4971;SDS011;2501;51.214;6.768;2023-03-21T08:28:27;25.98;;;9.90;;
4971;SDS011;2501;51.214;6.768;2023-03-21T08:30:55;29.13;;;9.55;;
4971;SDS011;2501;51.214;6.768;2023-03-21T08:33:24;20.40;;;9.55;;
4971;SDS011;2501;51.214;6.768;2023-03-21T08:35:52;21.35;;;10.18;;
4971;SDS011;2501;51.214;6.768;2023-03-21T08:38:21;27.25;;;11.70;;
4971;SDS011;2501;51.214;6.768;2023-03-21T08:40:52;27.05;;;10.20;;
4971;SDS011;2501;51.214;6.768;2023-03-21T08:43:21;23.80;;;10.98;;
4971;SDS011;2501;51.214;6.768;2023-03-21T08:45:49;25.75;;;10.38;;
4971;SDS011;2501;51.214;6.768;2023-03-21T08:48:18;20.15;;;9.25;;
4971;SDS011;2501;51.214;6.768;2023-03-21T08:50:46;24.92;;;11.52;;
4971;SDS011;2501;51.214;6.768;2023-03-21T08:53:15;23.98;;;10.43;;
4971;SDS011;2501;51.214;6.768;2023-03-21T08:55:43;19.67;;;9.48;;
4971;SDS011;2501;51.214;6.768;2023-03-21T08:58:14;23.98;;;11.15;;
4971;SDS011;2501;51.214;6.768;2023-03-21T09:00:46;21.95;;;11.60;;
4971;SDS011;2501;51.214;6.768;2023-03-21T09:03:14;30.42;;;11.65;;
4971;SDS011;2501;51.214;6.768;2023-03-21T09:05:44;25.08;;;11.27;;
4971;SDS011;2501;51.214;6.768;2023-03-21T09:08:12;26.17;;;11.60;;
4971;SDS011;2501;51.214;6.768;2023-03-21T09:10:41;24.03;;;11.10;;
4971;SDS011;2501;51.214;6.768;2023-03-21T09:13:09;28.45;;;12.27;;
4971;SDS011;2501;51.214;6.768;2023-03-21T09:15:40;25.63;;;11.43;;
4971;SDS011;2501;51.214;6.768;2023-03-21T09:18:09;26.30;;;12.55;;
4971;SDS011;2501;51.214;6.768;2023-03-21T09:20:42;24.83;;;11.93;;
4971;SDS011;2501;51.214;6.768;2023-03-21T09:23:12;28.42;;;12.27;;
4971;SDS011;2501;51.214;6.768;2023-03-21T09:25:43;24.42;;;11.30;;
4971;SDS011;2501;51.214;6.768;2023-03-21T09:28:12;20.35;;;11.65;;
4971;SDS011;2501;51.214;6.768;2023-03-21T09:30:43;24.25;;;11.52;;
4971;SDS011;2501;51.214;6.768;2023-03-21T09:33:11;26.58;;;12.10;;
4971;SDS011;2501;51.214;6.768;2023-03-21T09:35:43;24.35;;;11.32;;
4971;SDS011;2501;51.214;6.768;2023-03-21T09:38:11;21.75;;;10.25;;
4971;SDS011;2501;51.214;6.768;2023-03-21T09:40:47;24.30;;;10.88;;
4971;SDS011;2501;51.214;6.768;2023-03-21T09:43:28;20.63;;;10.30;;
4971;SDS011;2501;51.214;6.768;2023-03-21T09:46:10;23.98;;;10.82;;
4971;SDS011;2501;51.214;6.768;2023-03-21T09:48:47;21.45;;;9.13;;
4971;SDS011;2501;51.214;6.768;2023-03-21T09:51:21;22.23;;;10.53;;
4971;SDS011;2501;51.214;6.768;2023-03-21T09:53:53;20.95;;;11.10;;
4971;SDS011;2501;51.214;6.768;2023-03-21T09:56:24;22.70;;;10.32;;
4971;SDS011;2501;51.214;6.768;2023-03-21T09:58:54;18.27;;;9.30;;
4971;SDS011;2501;51.214;6.768;2023-03-21T10:01:28;21.70;;;9.25;;
4971;SDS011;2501;51.214;6.768;2023-03-21T10:04:06;18.52;;;9.52;;
4971;SDS011;2501;51.214;6.768;2023-03-21T10:06:37;17.73;;;8.93;;
4971;SDS011;2501;51.214;6.768;2023-03-21T10:09:10;17.15;;;8.45;;
4971;SDS011;2501;51.214;6.768;2023-03-21T10:11:46;17.58;;;7.95;;
4971;SDS011;2501;51.214;6.768;2023-03-21T10:14:17;18.43;;;7.70;;
4971;SDS011;2501;51.214;6.768;2023-03-21T10:16:56;15.75;;;7.50;;
4971;SDS011;2501;51.214;6.768;2023-03-21T10:19:27;16.38;;;8.68;;
4971;SDS011;2501;51.214;6.768;2023-03-21T10:21:55;23.33;;;8.90;;
4971;SDS011;2501;51.214;6.768;2023-03-21T10:24:24;16.33;;;9.80;;
4971;SDS011;2501;51.214;6.768;2023-03-21T10:26:55;16.40;;;8.95;;
4971;SDS011;2501;51.214;6.768;2023-03-21T10:29:25;19.58;;;9.80;;
4971;SDS011;2501;51.214;6.768;2023-03-21T10:31:59;21.03;;;9.60;;
4971;SDS011;2501;51.214;6.768;2023-03-21T10:34:29;19.80;;;7.82;;
4971;SDS011;2501;51.214;6.768;2023-03-21T10:37:03;15.90;;;8.80;;
4971;SDS011;2501;51.214;6.768;2023-03-21T10:39:33;18.58;;;9.00;;
4971;SDS011;2501;51.214;6.768;2023-03-21T10:42:04;15.68;;;7.40;;
4971;SDS011;2501;51.214;6.768;2023-03-21T10:44:34;19.63;;;7.83;;
4971;SDS011;2501;51.214;6.768;2023-03-21T10:47:06;16.20;;;7.72;;
4971;SDS011;2501;51.214;6.768;2023-03-21T10:49:36;16.27;;;7.07;;
4971;SDS011;2501;51.214;6.768;2023-03-21T10:52:07;14.45;;;7.47;;
4971;SDS011;2501;51.214;6.768;2023-03-21T10:54:45;14.55;;;7.03;;
4971;SDS011;2501;51.214;6.768;2023-03-21T10:57:15;14.13;;;7.55;;
4971;SDS011;2501;51.214;6.768;2023-03-21T10:59:48;20.15;;;8.40;;
4971;SDS011;2501;51.214;6.768;2023-03-21T11:02:27;15.32;;;8.23;;
4971;SDS011;2501;51.214;6.768;2023-03-21T11:05:01;17.92;;;8.00;;
4971;SDS011;2501;51.214;6.768;2023-03-21T11:07:31;23.87;;;9.60;;
4971;SDS011;2501;51.214;6.768;2023-03-21T11:10:11;16.33;;;8.20;;
4971;SDS011;2501;51.214;6.768;2023-03-21T11:12:45;18.13;;;8.00;;
4971;SDS011;2501;51.214;6.768;2023-03-21T11:15:24;15.07;;;8.30;;
4971;SDS011;2501;51.214;6.768;2023-03-21T11:17:58;11.05;;;7.72;;
4971;SDS011;2501;51.214;6.768;2023-03-21T11:20:28;16.90;;;7.93;;
4971;SDS011;2501;51.214;6.768;2023-03-21T11:22:59;15.52;;;7.80;;
4971;SDS011;2501;51.214;6.768;2023-03-21T11:25:31;17.00;;;8.48;;
4971;SDS011;2501;51.214;6.768;2023-03-21T11:28:04;13.52;;;7.75;;
4971;SDS011;2501;51.214;6.768;2023-03-21T11:30:35;20.17;;;8.03;;
4971;SDS011;2501;51.214;6.768;2023-03-21T11:33:06;15.82;;;8.98;;
4971;SDS011;2501;51.214;6.768;2023-03-21T11:35:36;18.50;;;8.77;;
4971;SDS011;2501;51.214;6.768;2023-03-21T11:38:09;15.98;;;7.90;;
4971;SDS011;2501;51.214;6.768;2023-03-21T11:40:55;17.27;;;7.55;;
4971;SDS011;2501;51.214;6.768;2023-03-21T11:43:27;15.23;;;8.60;;
4971;SDS011;2501;51.214;6.768;2023-03-21T11:45:57;12.98;;;8.10;;
4971;SDS011;2501;51.214;6.768;2023-03-21T11:48:30;13.45;;;9.60;;
4971;SDS011;2501;51.214;6.768;2023-03-21T11:51:05;20.85;;;9.68;;
4971;SDS011;2501;51.214;6.768;2023-03-21T11:53:43;14.48;;;8.73;;
4971;SDS011;2501;51.214;6.768;2023-03-21T11:56:19;20.67;;;9.02;;
4971;SDS011;2501;51.214;6.768;2023-03-21T11:58:55;16.08;;;8.48;;
4971;SDS011;2501;51.214;6.768;2023-03-21T12:01:36;15.35;;;8.35;;
4971;SDS011;2501;51.214;6.768;2023-03-21T12:04:24;14.98;;;7.70;;
4971;SDS011;2501;51.214;6.768;2023-03-21T12:07:08;13.35;;;7.60;;
4971;SDS011;2501;51.214;6.768;2023-03-21T12:09:52;13.35;;;7.22;;
4971;SDS011;2501;51.214;6.768;2023-03-21T12:12:26;10.27;;;7.20;;
4971;SDS011;2501;51.214;6.768;2023-03-21T12:15:02;18.77;;;7.80;;
4971;SDS011;2501;51.214;6.768;2023-03-21T12:17:39;15.80;;;8.00;;
4971;SDS011;2501;51.214;6.768;2023-03-21T12:20:23;17.95;;;8.65;;
4971;SDS011;2501;51.214;6.768;2023-03-21T12:23:22;19.70;;;8.43;;
4971;SDS011;2501;51.214;6.768;2023-03-21T12:26:02;16.50;;;8.60;;
4971;SDS011;2501;51.214;6.768;2023-03-21T12:28:40;21.93;;;9.37;;
4971;SDS011;2501;51.214;6.768;2023-03-21T12:31:18;17.50;;;9.80;;
4971;SDS011;2501;51.214;6.768;2023-03-21T12:33:58;15.03;;;9.30;;
4971;SDS011;2501;51.214;6.768;2023-03-21T12:36:50;20.02;;;9.18;;
4971;SDS011;2501;51.214;6.768;2023-03-21T12:39:30;18.08;;;8.38;;
4971;SDS011;2501;51.214;6.768;2023-03-21T12:42:16;15.40;;;8.52;;
4971;SDS011;2501;51.214;6.768;2023-03-21T12:45:08;15.10;;;8.40;;
4971;SDS011;2501;51.214;6.768;2023-03-21T12:47:42;14.60;;;8.60;;
4971;SDS011;2501;51.214;6.768;2023-03-21T12:50:17;17.42;;;7.95;;
4971;SDS011;2501;51.214;6.768;2023-03-21T12:52:53;12.70;;;7.78;;
4971;SDS011;2501;51.214;6.768;2023-03-21T12:55:26;19.27;;;10.43;;
4971;SDS011;2501;51.214;6.768;2023-03-21T12:58:00;15.30;;;9.48;;
4971;SDS011;2501;51.214;6.768;2023-03-21T13:00:33;16.88;;;8.10;;
4971;SDS011;2501;51.214;6.768;2023-03-21T13:03:07;17.10;;;9.63;;
4971;SDS011;2501;51.214;6.768;2023-03-21T13:05:42;14.23;;;7.20;;
4971;SDS011;2501;51.214;6.768;2023-03-21T13:08:17;14.45;;;7.50;;
4971;SDS011;2501;51.214;6.768;2023-03-21T13:10:51;15.07;;;7.20;;
4971;SDS011;2501;51.214;6.768;2023-03-21T13:13:21;18.42;;;8.40;;
4971;SDS011;2501;51.214;6.768;2023-03-21T13:16:01;12.48;;;7.30;;
4971;SDS011;2501;51.214;6.768;2023-03-21T13:18:43;15.90;;;7.88;;
4971;SDS011;2501;51.214;6.768;2023-03-21T13:21:23;12.87;;;6.80;;
4971;SDS011;2501;51.214;6.768;2023-03-21T13:24:16;15.85;;;7.55;;
4971;SDS011;2501;51.214;6.768;2023-03-21T13:26:47;11.65;;;8.45;;
4971;SDS011;2501;51.214;6.768;2023-03-21T13:29:25;16.90;;;6.90;;
4971;SDS011;2501;51.214;6.768;2023-03-21T13:31:58;12.52;;;6.80;;
4971;SDS011;2501;51.214;6.768;2023-03-21T13:34:34;11.00;;;6.10;;
4971;SDS011;2501;51.214;6.768;2023-03-21T13:37:09;11.68;;;7.18;;
4971;SDS011;2501;51.214;6.768;2023-03-21T13:39:46;14.93;;;7.60;;
4971;SDS011;2501;51.214;6.768;2023-03-21T13:42:19;11.88;;;6.50;;
4971;SDS011;2501;51.214;6.768;2023-03-21T13:44:52;14.30;;;7.03;;
4971;SDS011;2501;51.214;6.768;2023-03-21T13:47:27;9.95;;;6.70;;
4971;SDS011;2501;51.214;6.768;2023-03-21T13:50:13;9.23;;;6.00;;
4971;SDS011;2501;51.214;6.768;2023-03-21T13:53:19;13.13;;;7.60;;
4971;SDS011;2501;51.214;6.768;2023-03-21T13:56:05;13.00;;;6.07;;
4971;SDS011;2501;51.214;6.768;2023-03-21T13:58:36;9.07;;;5.78;;
4971;SDS011;2501;51.214;6.768;2023-03-21T14:01:18;11.23;;;5.90;;
4971;SDS011;2501;51.214;6.768;2023-03-21T14:03:59;11.13;;;5.90;;
4971;SDS011;2501;51.214;6.768;2023-03-21T14:06:33;11.43;;;5.88;;
4971;SDS011;2501;51.214;6.768;2023-03-21T14:09:04;13.25;;;6.57;;
4971;SDS011;2501;51.214;6.768;2023-03-21T14:11:36;12.40;;;6.20;;
4971;SDS011;2501;51.214;6.768;2023-03-21T14:14:04;10.80;;;6.70;;
4971;SDS011;2501;51.214;6.768;2023-03-21T14:16:33;12.35;;;6.07;;
4971;SDS011;2501;51.214;6.768;2023-03-21T14:19:03;11.20;;;5.60;;
4971;SDS011;2501;51.214;6.768;2023-03-21T14:21:33;9.85;;;6.20;;
4971;SDS011;2501;51.214;6.768;2023-03-21T14:24:03;12.45;;;6.30;;
4971;SDS011;2501;51.214;6.768;2023-03-21T14:26:33;8.10;;;5.70;;
4971;SDS011;2501;51.214;6.768;2023-03-21T14:29:08;11.73;;;6.25;;
4971;SDS011;2501;51.214;6.768;2023-03-21T14:31:44;13.23;;;5.70;;
4971;SDS011;2501;51.214;6.768;2023-03-21T14:34:14;10.82;;;5.57;;
4971;SDS011;2501;51.214;6.768;2023-03-21T14:36:44;11.98;;;5.40;;
4971;SDS011;2501;51.214;6.768;2023-03-21T14:39:13;9.13;;;5.72;;
4971;SDS011;2501;51.214;6.768;2023-03-21T14:41:47;9.82;;;5.90;;
4971;SDS011;2501;51.214;6.768;2023-03-21T14:44:19;13.98;;;6.82;;
4971;SDS011;2501;51.214;6.768;2023-03-21T14:47:01;9.98;;;5.30;;
4971;SDS011;2501;51.214;6.768;2023-03-21T14:49:31;8.68;;;5.35;;
4971;SDS011;2501;51.214;6.768;2023-03-21T14:52:02;11.05;;;5.68;;
4971;SDS011;2501;51.214;6.768;2023-03-21T14:54:31;9.20;;;5.20;;
4971;SDS011;2501;51.214;6.768;2023-03-21T14:57:07;9.93;;;5.30;;
4971;SDS011;2501;51.214;6.768;2023-03-21T14:59:38;7.97;;;5.10;;
4971;SDS011;2501;51.214;6.768;2023-03-21T15:02:12;10.52;;;5.40;;
4971;SDS011;2501;51.214;6.768;2023-03-21T15:04:44;8.27;;;4.45;;
4971;SDS011;2501;51.214;6.768;2023-03-21T15:07:22;9.60;;;5.50;;
4971;SDS011;2501;51.214;6.768;2023-03-21T15:09:54;9.82;;;5.47;;
4971;SDS011;2501;51.214;6.768;2023-03-21T15:12:27;7.45;;;4.63;;
4971;SDS011;2501;51.214;6.768;2023-03-21T15:14:56;8.38;;;5.10;;
4971;SDS011;2501;51.214;6.768;2023-03-21T15:17:25;8.50;;;5.10;;
4971;SDS011;2501;51.214;6.768;2023-03-21T15:19:55;8.20;;;5.00;;
4971;SDS011;2501;51.214;6.768;2023-03-21T15:22:26;11.50;;;5.60;;
4971;SDS011;2501;51.214;6.768;2023-03-21T15:25:00;11.30;;;5.63;;
4971;SDS011;2501;51.214;6.768;2023-03-21T15:27:36;7.65;;;5.57;;
4971;SDS011;2501;51.214;6.768;2023-03-21T15:30:14;8.70;;;5.60;;
4971;SDS011;2501;51.214;6.768;2023-03-21T15:32:47;11.52;;;5.30;;
4971;SDS011;2501;51.214;6.768;2023-03-21T15:35:17;11.57;;;5.53;;
4971;SDS011;2501;51.214;6.768;2023-03-21T15:37:51;8.40;;;5.00;;